createdAt,value
2022-11-01T00:01:41.372Z,9.61
2022-11-01T00:04:57.767Z,9.60
2022-11-01T00:08:15.872Z,9.56
2022-11-01T00:11:32.266Z,9.63
2022-11-01T00:14:48.314Z,9.67
2022-11-01T00:18:04.299Z,9.60
2022-11-01T00:21:22.206Z,9.49
2022-11-01T00:24:38.256Z,9.42
2022-11-01T00:27:54.331Z,9.37
2022-11-01T00:31:12.805Z,9.35
2022-11-01T00:34:29.457Z,9.30
2022-11-01T00:37:45.516Z,9.38
2022-11-01T00:41:03.454Z,9.38
2022-11-01T00:44:19.729Z,9.36
2022-11-01T00:47:35.865Z,9.36
2022-11-01T00:50:51.902Z,9.35
2022-11-01T00:54:08.148Z,9.28
2022-11-01T00:57:24.178Z,9.26
2022-11-01T01:00:40.467Z,9.21
2022-11-01T01:03:56.789Z,9.17
2022-11-01T01:07:13.054Z,9.00
2022-11-01T01:10:29.463Z,8.84
2022-11-01T01:13:45.542Z,8.69
2022-11-01T01:17:02.114Z,8.81
2022-11-01T01:20:21.021Z,8.87
2022-11-01T01:23:37.222Z,8.85
2022-11-01T01:26:53.223Z,8.68
2022-11-01T01:30:09.592Z,8.69
2022-11-01T01:33:25.684Z,8.80
2022-11-01T01:36:41.688Z,8.84
2022-11-01T01:39:58.001Z,8.93
2022-11-01T01:43:16.690Z,8.80
2022-11-01T01:46:34.201Z,8.75
2022-11-01T01:49:50.923Z,8.74
2022-11-01T01:53:12.570Z,8.70
2022-11-01T01:56:34.100Z,8.66
2022-11-01T01:59:52.956Z,8.69
2022-11-01T02:03:10.033Z,8.70
2022-11-01T02:06:28.728Z,8.65
2022-11-01T02:09:45.629Z,8.79
2022-11-01T02:13:02.195Z,8.74
2022-11-01T02:16:49.869Z,8.62
2022-11-01T02:21:09.433Z,8.67
2022-11-01T02:25:03.953Z,8.68
2022-11-01T02:28:30.713Z,8.62
2022-11-01T02:32:15.639Z,8.52
2022-11-01T02:35:39.850Z,8.60
2022-11-01T02:39:01.094Z,8.62
2022-11-01T02:42:21.440Z,8.59
2022-11-01T02:45:42.699Z,8.53
2022-11-01T02:49:00.813Z,8.61
2022-11-01T02:52:21.359Z,8.60
2022-11-01T02:55:39.282Z,8.54
2022-11-01T02:58:57.094Z,8.65
2022-11-01T03:02:18.619Z,8.69
2022-11-01T03:05:40.419Z,8.64
2022-11-01T03:09:00.847Z,8.72
2022-11-01T03:12:22.332Z,8.69
2022-11-01T03:15:41.971Z,8.60
2022-11-01T03:19:07.907Z,8.63
2022-11-01T03:22:29.226Z,8.68
2022-11-01T03:25:49.585Z,8.72
2022-11-01T03:29:10.202Z,8.61
2022-11-01T03:32:28.875Z,8.60
2022-11-01T03:35:48.585Z,8.62
2022-11-01T03:39:10.487Z,8.59
2022-11-01T03:42:31.903Z,8.59
2022-11-01T03:45:49.536Z,8.57
2022-11-01T03:49:05.721Z,8.60
2022-11-01T03:52:22.245Z,8.65
2022-11-01T03:55:38.748Z,8.62
2022-11-01T03:58:55.099Z,8.60
2022-11-01T04:05:27.947Z,8.59
2022-11-01T04:08:45.260Z,8.67
2022-11-01T04:12:01.363Z,8.77
2022-11-01T04:15:33.236Z,8.71
2022-11-01T04:19:02.999Z,8.70
2022-11-01T04:22:22.133Z,8.70
2022-11-01T04:25:39.108Z,8.60
2022-11-01T04:29:02.104Z,8.47
2022-11-01T04:32:19.117Z,8.44
2022-11-01T04:35:35.282Z,8.33
2022-11-01T04:38:59.568Z,8.25
2022-11-01T04:42:15.838Z,8.16
2022-11-01T04:45:32.634Z,8.17
2022-11-01T04:48:49.195Z,8.25
2022-11-01T04:52:05.259Z,8.29
2022-11-01T04:55:22.263Z,8.27
2022-11-01T04:58:43.082Z,8.32
2022-11-01T05:01:57.060Z,8.31
2022-11-01T05:05:15.875Z,8.32
2022-11-01T05:08:32.113Z,8.32
2022-11-01T05:11:48.284Z,8.30
2022-11-01T05:15:04.723Z,8.32
2022-11-01T05:18:21.277Z,8.31
2022-11-01T05:21:37.409Z,8.33
2022-11-01T05:24:54.600Z,8.36
2022-11-01T05:28:15.311Z,8.38
2022-11-01T05:31:31.549Z,8.46
2022-11-01T05:34:49.871Z,8.46
2022-11-01T05:38:06.447Z,8.49
2022-11-01T05:41:22.716Z,8.55
2022-11-01T05:44:39.086Z,8.54
2022-11-01T05:47:55.447Z,8.53
2022-11-01T05:51:11.797Z,8.52
2022-11-01T05:54:27.945Z,8.49
2022-11-01T05:57:44.810Z,8.45
2022-11-01T06:01:07.149Z,8.30
2022-11-01T06:04:23.315Z,8.05
2022-11-01T06:07:42.643Z,7.84
2022-11-01T06:10:59.144Z,7.81
2022-11-01T06:14:18.120Z,7.83
2022-11-01T06:17:34.858Z,7.91
2022-11-01T06:20:51.353Z,8.01
2022-11-01T06:24:10.152Z,8.09
2022-11-01T06:27:26.755Z,8.14
2022-11-01T06:30:44.781Z,8.22
2022-11-01T06:34:00.829Z,8.33
2022-11-01T06:37:20.763Z,8.29
2022-11-01T06:40:36.892Z,8.41
2022-11-01T06:43:56.099Z,8.43
2022-11-01T06:47:15.986Z,8.50
2022-11-01T06:50:32.671Z,8.53
2022-11-01T06:53:49.493Z,8.57
2022-11-01T06:57:05.858Z,8.67
2022-11-01T07:00:23.958Z,8.71
2022-11-01T07:03:40.585Z,8.81
2022-11-01T07:06:57.275Z,8.86
2022-11-01T07:10:15.147Z,8.90
2022-11-01T07:13:33.184Z,8.94
2022-11-01T07:16:56.706Z,8.96
2022-11-01T07:20:15.471Z,8.90
2022-11-01T07:23:31.630Z,8.99
2022-11-01T07:26:50.055Z,9.03
2022-11-01T07:30:06.457Z,9.13
2022-11-01T07:33:22.642Z,9.17
2022-11-01T07:36:39.027Z,9.20
2022-11-01T07:39:55.222Z,9.29
2022-11-01T07:43:12.606Z,9.39
2022-11-01T07:46:28.865Z,9.46
2022-11-01T07:49:44.942Z,9.47
2022-11-01T07:53:08.999Z,9.43
2022-11-01T07:56:25.531Z,9.50
2022-11-01T07:59:44.521Z,9.53
2022-11-01T08:03:07.162Z,9.62
2022-11-01T08:06:23.476Z,9.70
2022-11-01T08:09:41.056Z,9.79
2022-11-01T08:13:07.098Z,9.72
2022-11-01T08:16:30.825Z,9.74
2022-11-01T08:20:07.541Z,9.81
2022-11-01T08:23:34.913Z,9.91
2022-11-01T08:26:55.325Z,9.95
2022-11-01T08:30:20.313Z,10.00
2022-11-01T08:33:39.283Z,10.03
2022-11-01T08:37:00.225Z,10.04
2022-11-01T08:40:48.903Z,10.08
2022-11-01T08:44:22.257Z,10.15
2022-11-01T08:47:47.070Z,10.24
2022-11-01T08:51:07.096Z,10.29
2022-11-01T08:54:23.446Z,10.30
2022-11-01T08:57:39.905Z,10.33
2022-11-01T09:00:56.142Z,10.38
2022-11-01T09:04:15.237Z,10.33
2022-11-01T09:07:43.015Z,10.33
2022-11-01T09:11:15.172Z,10.40
2022-11-01T09:14:37.023Z,10.51
2022-11-01T09:18:05.558Z,10.55
2022-11-01T09:21:27.816Z,10.55
2022-11-01T09:24:42.403Z,10.58
2022-11-01T09:28:00.368Z,10.64
2022-11-01T09:31:21.342Z,10.70
2022-11-01T09:34:41.157Z,10.77
2022-11-01T09:38:04.622Z,10.76
2022-11-01T09:41:30.463Z,10.81
2022-11-01T09:44:51.626Z,10.90
2022-11-01T09:48:10.081Z,10.96
2022-11-01T09:51:31.161Z,10.99
2022-11-01T09:54:47.254Z,10.98
2022-11-01T09:58:12.229Z,11.01
2022-11-01T10:01:54.325Z,11.04
2022-11-01T10:05:33.069Z,11.06
2022-11-01T10:09:02.891Z,11.05
2022-11-01T10:12:33.358Z,11.13
2022-11-01T10:16:01.726Z,11.18
2022-11-01T10:19:22.641Z,11.30
2022-11-01T10:22:45.161Z,11.45
2022-11-01T10:26:03.697Z,11.56
2022-11-01T10:29:25.960Z,11.72
2022-11-01T10:32:46.585Z,11.79
2022-11-01T10:36:08.986Z,12.00
2022-11-01T10:39:57.173Z,12.13
2022-11-01T10:42:58.160Z,12.27
2022-11-01T10:46:19.262Z,12.37
2022-11-01T10:50:04.723Z,12.46
2022-11-01T10:53:05.260Z,12.52
2022-11-01T10:56:27.528Z,12.64
2022-11-01T10:59:48.635Z,12.73
2022-11-01T11:03:09.578Z,12.74
2022-11-01T11:06:26.810Z,12.79
2022-11-01T11:09:46.222Z,12.78
2022-11-01T11:13:07.444Z,12.86
2022-11-01T11:16:31.904Z,12.98
2022-11-01T11:19:51.056Z,13.11
2022-11-01T11:23:11.095Z,13.21
2022-11-01T11:29:54.682Z,13.24
2022-11-01T11:33:12.272Z,13.25
2022-11-01T11:36:37.404Z,13.27
2022-11-01T11:40:12.487Z,13.36
2022-11-01T11:43:39.349Z,13.40
2022-11-01T11:47:09.862Z,13.50
2022-11-01T11:50:38.969Z,13.56
2022-11-01T11:54:24.535Z,13.60
2022-11-01T11:58:52.420Z,13.63
2022-11-01T12:02:20.846Z,13.64
2022-11-01T12:05:39.729Z,13.70
2022-11-01T12:09:00.037Z,13.75
2022-11-01T12:12:28.405Z,13.79
2022-11-01T12:15:46.171Z,13.81
2022-11-01T12:19:08.920Z,13.82
2022-11-01T12:22:30.087Z,13.87
2022-11-01T12:25:50.179Z,13.89
2022-11-01T12:29:36.207Z,13.87
2022-11-01T12:33:46.971Z,13.95
2022-11-01T12:37:11.968Z,14.00
2022-11-01T12:40:32.429Z,14.02
2022-11-01T12:44:09.822Z,14.02
2022-11-01T12:47:43.052Z,14.08
2022-11-01T12:51:28.451Z,14.13
2022-11-01T12:55:01.843Z,14.12
2022-11-01T12:58:36.401Z,14.14
2022-11-01T13:02:00.248Z,14.14
2022-11-01T13:05:29.690Z,14.17
2022-11-01T13:08:58.369Z,14.18
2022-11-01T13:12:21.621Z,14.13
2022-11-01T13:15:48.462Z,14.17
2022-11-01T13:19:12.766Z,14.19
2022-11-01T13:22:35.435Z,14.20
2022-11-01T13:25:56.349Z,14.23
2022-11-01T13:29:26.247Z,14.27
2022-11-01T13:33:07.390Z,14.31
2022-11-01T13:39:38.185Z,14.36
2022-11-01T13:43:07.624Z,14.37
2022-11-01T13:47:33.960Z,14.41
2022-11-01T13:51:17.332Z,14.44
2022-11-01T13:54:49.415Z,14.48
2022-11-01T13:58:13.421Z,14.51
2022-11-01T14:01:45.328Z,14.53
2022-11-01T14:05:13.206Z,14.57
2022-11-01T14:08:47.945Z,14.56
2022-11-01T14:12:43.393Z,14.58
2022-11-01T14:16:46.222Z,14.60
2022-11-01T14:20:34.900Z,14.63
2022-11-01T14:24:10.108Z,14.63
2022-11-01T14:27:51.849Z,14.62
2022-11-01T14:31:11.864Z,14.60
2022-11-01T14:34:46.381Z,14.56
2022-11-01T14:38:08.681Z,14.53
2022-11-01T14:41:35.548Z,14.50
2022-11-01T14:44:55.665Z,14.45
2022-11-01T14:48:19.646Z,14.38
2022-11-01T14:51:40.319Z,14.29
2022-11-01T14:55:02.355Z,14.23
2022-11-01T14:58:30.211Z,14.19
2022-11-01T15:01:55.951Z,14.08
2022-11-01T15:05:38.251Z,14.04
2022-11-01T15:08:55.319Z,14.02
2022-11-01T15:12:20.560Z,13.95
2022-11-01T15:15:41.210Z,13.88
2022-11-01T15:19:06.973Z,13.78
2022-11-01T15:22:30.958Z,13.70
2022-11-01T15:26:48.256Z,13.65
2022-11-01T15:30:06.658Z,13.65
2022-11-01T15:33:31.517Z,13.60
2022-11-01T15:36:51.881Z,13.58
2022-11-01T15:40:28.300Z,13.54
2022-11-01T15:43:51.520Z,13.53
2022-11-01T15:47:11.397Z,13.44
2022-11-01T15:50:33.262Z,13.40
2022-11-01T15:53:50.708Z,13.30
2022-11-01T15:57:19.816Z,13.23
2022-11-01T16:00:47.991Z,13.20
2022-11-01T16:04:11.716Z,13.11
2022-11-01T16:07:31.819Z,13.11
2022-11-01T16:10:53.487Z,13.02
2022-11-01T16:14:14.901Z,12.94
2022-11-01T16:17:46.622Z,12.89
2022-11-01T16:21:25.137Z,12.84
2022-11-01T16:24:43.596Z,12.82
2022-11-01T16:28:14.664Z,12.78
2022-11-01T16:31:41.493Z,12.75
2022-11-01T16:34:58.468Z,12.65
2022-11-01T16:38:45.017Z,12.57
2022-11-01T16:42:05.094Z,12.59
2022-11-01T16:45:23.139Z,12.57
2022-11-01T16:48:48.910Z,12.48
2022-11-01T16:52:07.050Z,12.42
2022-11-01T16:55:41.341Z,12.42
2022-11-01T16:59:02.276Z,12.39
2022-11-01T17:02:27.142Z,12.34
2022-11-01T17:05:52.493Z,12.33
2022-11-01T17:09:12.652Z,12.30
2022-11-01T17:12:33.580Z,12.22
2022-11-01T17:16:11.700Z,12.16
2022-11-01T17:19:56.430Z,12.11
2022-11-01T17:23:14.470Z,12.11
2022-11-01T17:26:37.486Z,12.13
2022-11-01T17:30:04.444Z,12.13
2022-11-01T17:33:31.849Z,12.04
2022-11-01T17:36:58.811Z,11.98
2022-11-01T17:40:29.469Z,11.90
2022-11-01T17:43:45.792Z,11.82
2022-11-01T17:47:02.891Z,11.80
2022-11-01T17:50:28.049Z,11.79
2022-11-01T17:53:48.429Z,11.77
2022-11-01T17:58:20.131Z,11.75
2022-11-01T18:01:44.553Z,11.71
2022-11-01T18:05:02.310Z,11.63
2022-11-01T18:08:28.584Z,11.54
2022-11-01T18:11:54.261Z,11.44
2022-11-01T18:15:17.028Z,11.45
2022-11-01T18:18:52.867Z,11.47
2022-11-01T18:22:19.513Z,11.45
2022-11-01T18:25:42.600Z,11.40
2022-11-01T18:29:05.435Z,11.40
2022-11-01T18:32:30.668Z,11.41
2022-11-01T18:35:54.917Z,11.37
2022-11-01T18:39:20.777Z,11.36
2022-11-01T18:42:40.142Z,11.38
2022-11-01T18:46:23.488Z,11.33
2022-11-01T18:49:21.913Z,11.30
2022-11-01T18:52:42.414Z,11.31
2022-11-01T18:56:19.038Z,11.29
2022-11-01T18:59:50.941Z,11.27
2022-11-01T19:03:11.841Z,11.21
2022-11-01T19:06:34.211Z,11.13
2022-11-01T19:10:04.831Z,11.05
2022-11-01T19:13:35.566Z,11.06
2022-11-01T19:17:00.077Z,11.04
2022-11-01T19:20:34.269Z,11.04
2022-11-01T19:23:55.992Z,11.03
2022-11-01T19:27:20.084Z,11.05
2022-11-01T19:30:40.246Z,11.04
2022-11-01T19:33:58.249Z,11.02
2022-11-01T19:37:30.524Z,11.02
2022-11-01T19:40:50.586Z,11.04
2022-11-01T19:44:15.420Z,11.06
2022-11-01T19:47:44.419Z,11.02
2022-11-01T19:51:01.880Z,11.00
2022-11-01T19:54:23.154Z,10.98
2022-11-01T19:57:44.918Z,10.93
2022-11-01T20:01:37.230Z,10.99
2022-11-01T20:04:56.182Z,11.00
2022-11-01T20:08:22.396Z,11.03
2022-11-01T20:11:41.699Z,11.00
2022-11-01T20:14:59.497Z,10.99
2022-11-01T20:18:21.668Z,11.00
2022-11-01T20:21:40.929Z,10.96
2022-11-01T20:24:58.186Z,11.02
2022-11-01T20:28:16.505Z,11.05
2022-11-01T20:31:37.081Z,11.03
2022-11-01T20:34:54.192Z,11.06
2022-11-01T20:38:11.430Z,11.05
2022-11-01T20:41:28.675Z,11.03
2022-11-01T20:44:45.907Z,11.05
2022-11-01T20:48:05.506Z,11.03
2022-11-01T20:51:23.236Z,11.02
2022-11-01T20:54:44.445Z,11.06
2022-11-01T20:58:03.638Z,11.09
2022-11-01T21:01:27.848Z,11.10
2022-11-01T21:04:47.623Z,11.07
2022-11-01T21:08:14.712Z,11.08
2022-11-01T21:11:38.843Z,11.08
2022-11-01T21:14:57.409Z,11.03
2022-11-01T21:18:47.077Z,11.00
2022-11-01T21:22:06.259Z,11.01
2022-11-01T21:25:26.461Z,10.94
2022-11-01T21:28:47.321Z,10.88
2022-11-01T21:32:03.993Z,10.83
2022-11-01T21:35:47.760Z,10.79
2022-11-01T21:39:07.232Z,10.79
2022-11-01T21:42:36.020Z,10.81
2022-11-01T21:45:53.460Z,10.73
2022-11-01T21:49:18.851Z,10.71
2022-11-01T21:52:34.920Z,10.70
2022-11-01T21:55:51.092Z,10.72
2022-11-01T21:59:07.442Z,10.70
2022-11-01T22:02:24.065Z,10.70
2022-11-01T22:05:40.149Z,10.68
2022-11-01T22:08:56.191Z,10.69
2022-11-01T22:12:13.407Z,10.70
2022-11-01T22:15:29.686Z,10.70
2022-11-01T22:18:45.802Z,10.72
2022-11-01T22:22:02.066Z,10.71
2022-11-01T22:25:18.970Z,10.71
2022-11-01T22:28:35.114Z,10.78
2022-11-01T22:31:51.279Z,10.75
2022-11-01T22:35:07.444Z,10.75
2022-11-01T22:38:27.982Z,10.74
2022-11-01T22:41:47.665Z,10.77
2022-11-01T22:45:04.739Z,10.83
2022-11-01T22:48:26.342Z,10.86
2022-11-01T22:51:46.961Z,10.90
2022-11-01T22:55:12.245Z,10.88
2022-11-01T22:58:40.481Z,10.90
2022-11-01T23:01:57.997Z,10.94
2022-11-01T23:05:31.401Z,10.97
2022-11-01T23:08:47.711Z,11.00
2022-11-01T23:12:18.591Z,11.00
2022-11-01T23:15:38.241Z,11.04
2022-11-01T23:18:54.446Z,11.08
2022-11-01T23:22:12.183Z,11.07
2022-11-01T23:25:28.344Z,11.11
2022-11-01T23:28:47.165Z,11.15
2022-11-01T23:32:03.296Z,11.17
2022-11-01T23:35:26.960Z,11.16
2022-11-01T23:38:49.078Z,11.21
2022-11-01T23:42:05.310Z,11.23
2022-11-01T23:45:38.093Z,11.25
2022-11-01T23:48:54.239Z,11.25
2022-11-01T23:52:13.755Z,11.27
2022-11-01T23:55:35.711Z,11.27
2022-11-01T23:58:51.693Z,11.29
